Time;durP1;ratioP1;P1;durP2;ratioP2;P2;SDS_P1;SDS_P2;PMS_P1;PMS_P2;Temp;Humidity;BMP_temperature;BMP_pressure;BME280_temperature;BME280_humidity;BME280_pressure;Samples;Min_cycle;Max_cycle;Signal;HPM_P1;HPM_P2
2022/03/09 00:00:22;;;;;;;5.20;3.30;;;;;;;-1.46;31.67;99844.97;5036750;28;20051;-73
2022/03/09 00:02:48;;;;;;;6.57;3.60;;;;;;;-1.06;31.39;99860.22;5020445;28;20044;-74
2022/03/09 00:05:14;;;;;;;5.33;3.47;;;;;;;-1.02;31.26;99859.97;5039100;28;20524;-73
2022/03/09 00:07:40;;;;;;;5.93;2.90;;;;;;;-1.06;31.06;99855.00;5023510;28;20044;-73
2022/03/09 00:10:06;;;;;;;5.83;3.37;;;;;;;-0.98;31.07;99856.28;5039152;28;20055;-73
2022/03/09 00:12:32;;;;;;;9.53;3.73;;;;;;;-1.16;31.25;99853.78;5022443;28;20052;-73
2022/03/09 00:14:58;;;;;;;7.60;3.77;;;;;;;-1.07;31.28;99864.56;5055978;28;20071;-73
2022/03/09 00:17:24;;;;;;;6.13;3.33;;;;;;;-1.09;31.66;99863.81;5022241;28;20051;-73
2022/03/09 00:19:51;;;;;;;8.07;4.53;;;;;;;-1.23;31.42;99868.88;5022481;28;20139;-73
2022/03/09 00:22:17;;;;;;;7.93;3.60;;;;;;;-1.31;31.60;99868.47;5039431;28;20040;-73
2022/03/09 00:24:43;;;;;;;8.43;3.60;;;;;;;-1.72;31.83;99870.53;5039621;28;20100;-73
2022/03/09 00:27:09;;;;;;;9.20;3.70;;;;;;;-1.73;32.27;99861.06;5022139;28;20048;-75
2022/03/09 00:29:36;;;;;;;5.63;3.53;;;;;;;-1.73;32.12;99860.19;5055746;28;20043;-74
2022/03/09 00:32:04;;;;;;;9.50;3.93;;;;;;;-1.73;32.45;99868.00;5055394;28;20048;-75
2022/03/09 00:34:30;;;;;;;5.90;3.73;;;;;;;-1.83;32.55;99866.78;5055108;28;20044;-74
2022/03/09 00:36:56;;;;;;;9.10;3.93;;;;;;;-1.79;32.50;99871.78;5038824;28;20497;-74
2022/03/09 00:39:22;;;;;;;7.63;4.13;;;;;;;-1.86;32.78;99851.31;5020724;28;20044;-74
2022/03/09 00:41:48;;;;;;;9.90;4.33;;;;;;;-1.83;33.08;99875.41;5023708;28;20250;-75
2022/03/09 00:44:14;;;;;;;6.73;3.80;;;;;;;-1.84;32.75;99867.69;5022655;28;20044;-75
2022/03/09 00:46:40;;;;;;;6.37;3.50;;;;;;;-1.91;32.46;99880.16;5022645;28;20055;-74
2022/03/09 00:49:06;;;;;;;9.10;3.60;;;;;;;-1.84;32.48;99878.94;5022185;28;20113;-75
2022/03/09 00:51:32;;;;;;;7.70;4.00;;;;;;;-1.82;32.55;99889.28;5021922;28;20050;-76
2022/03/09 00:53:58;;;;;;;6.53;3.83;;;;;;;-1.85;32.46;99873.81;5038815;28;20417;-74
2022/03/09 00:56:24;;;;;;;9.97;3.93;;;;;;;-1.90;32.54;99876.66;5039674;28;20040;-74
2022/03/09 00:58:50;;;;;;;6.53;3.73;;;;;;;-1.93;32.54;99875.94;5056215;28;20512;-74
2022/03/09 01:01:16;;;;;;;6.17;3.50;;;;;;;-1.97;32.59;99871.81;5072420;28;20075;-78
2022/03/09 01:03:42;;;;;;;10.47;3.70;;;;;;;-1.99;32.38;99884.06;5036516;28;20467;-73
2022/03/09 01:06:08;;;;;;;5.43;3.30;;;;;;;-2.07;32.41;99878.38;5052543;28;20570;-75
2022/03/09 01:08:34;;;;;;;7.13;3.60;;;;;;;-2.20;32.27;99880.72;5035306;28;20072;-75
2022/03/09 01:11:00;;;;;;;6.23;3.30;;;;;;;-2.21;32.32;99878.19;5018743;28;20115;-75
2022/03/09 01:13:26;;;;;;;4.87;3.07;;;;;;;-2.27;32.33;99886.28;5051959;28;20043;-76
2022/03/09 01:15:53;;;;;;;6.13;3.17;;;;;;;-2.36;32.27;99882.38;5019032;28;20044;-75
2022/03/09 01:18:20;;;;;;;5.97;3.23;;;;;;;-2.21;32.63;99891.19;5053671;28;20067;-73
2022/03/09 01:20:47;;;;;;;6.37;3.70;;;;;;;-2.20;32.46;99893.72;5038206;28;20552;-72
2022/03/09 01:23:13;;;;;;;6.67;3.60;;;;;;;-2.29;32.46;99888.13;5021019;28;20047;-72
2022/03/09 01:25:38;;;;;;;9.47;4.00;;;;;;;-2.25;32.75;99892.25;5019309;28;20135;-74
2022/03/09 01:28:04;;;;;;;8.10;3.37;;;;;;;-2.25;32.39;99892.25;5018575;28;20735;-75
2022/03/09 01:30:30;;;;;;;6.33;3.63;;;;;;;-2.40;32.73;99869.59;5018698;28;20089;-74
2022/03/09 01:32:56;;;;;;;7.43;3.77;;;;;;;-2.20;32.60;99898.91;5068725;28;20135;-73
2022/03/09 01:35:23;;;;;;;9.50;3.60;;;;;;;-2.53;32.51;99884.06;5019928;28;20048;-75
2022/03/09 01:37:49;;;;;;;6.90;3.27;;;;;;;-2.33;32.12;99907.38;5035930;28;20055;-76
2022/03/09 01:40:16;;;;;;;7.17;3.90;;;;;;;-2.36;32.47;99915.31;5036545;28;20137;-75
2022/03/09 01:42:42;;;;;;;6.77;3.57;;;;;;;-2.45;32.32;99903.59;5037633;28;20485;-73
2022/03/09 01:45:12;;;;;;;7.43;3.90;;;;;;;-2.41;32.34;99912.94;5021203;28;20940;-75
2022/03/09 01:47:38;;;;;;;11.30;4.65;;;;;;;-2.65;31.99;99921.00;5037280;28;20045;-74
2022/03/09 01:50:08;;;;;;;5.77;2.97;;;;;;;-2.64;32.56;99902.75;5070029;28;20053;-74
2022/03/09 01:52:34;;;;;;;7.73;3.67;;;;;;;-2.63;32.51;99924.41;5071859;28;20047;-75
2022/03/09 01:55:00;;;;;;;9.73;3.73;;;;;;;-2.73;32.30;99918.75;5055506;28;20063;-73
2022/03/09 01:57:29;;;;;;;6.30;3.83;;;;;;;-2.72;32.22;99927.41;5037110;28;20407;-74
2022/03/09 01:59:55;;;;;;;6.30;3.87;;;;;;;-2.93;32.70;99915.34;5036882;28;20040;-74
2022/03/09 02:02:21;;;;;;;11.17;3.90;;;;;;;-2.92;32.50;99930.88;5038487;28;20055;-75
2022/03/09 02:04:47;;;;;;;8.13;3.67;;;;;;;-2.94;32.71;99934.47;5055404;28;20040;-74
2022/03/09 02:07:13;;;;;;;8.83;3.70;;;;;;;-3.05;32.71;99926.28;5037105;28;20052;-78
2022/03/09 02:09:44;;;;;;;6.23;3.87;;;;;;;-3.18;32.58;99912.16;5020700;28;20286;-73
2022/03/09 02:12:18;;;;;;;5.57;3.35;;;;;;;-2.85;32.69;99939.25;5055087;28;20048;-73
2022/03/09 02:14:46;;;;;;;6.70;4.13;;;;;;;-2.96;32.92;99938.88;5070828;28;20133;-74
2022/03/09 02:17:16;;;;;;;7.57;3.90;;;;;;;-2.96;32.82;99946.66;5053322;28;20484;-74
2022/03/09 02:19:44;;;;;;;;;;;;;;;-2.79;32.71;99947.63;5070533;28;20048;-74
2022/03/09 02:22:22;;;;;;;6.43;3.40;;;;;;;-2.84;32.67;99951.31;5036626;28;19926;-74
2022/03/09 02:24:50;;;;;;;7.77;4.20;;;;;;;-2.98;32.80;99959.72;5070313;28;20037;-73
2022/03/09 02:27:16;;;;;;;9.50;3.73;;;;;;;-3.09;32.50;99961.09;5053823;28;20070;-75
2022/03/09 02:29:42;;;;;;;9.50;3.50;;;;;;;-3.18;32.64;99961.50;5054250;28;20044;-74
2022/03/09 02:32:09;;;;;;;6.23;3.90;;;;;;;-3.18;32.69;99962.31;5054749;28;20040;-74
2022/03/09 02:34:35;;;;;;;6.63;3.50;;;;;;;-3.34;32.89;99957.84;5037064;28;20066;-74
2022/03/09 02:37:01;;;;;;;13.07;4.07;;;;;;;-3.39;32.95;99967.56;5020681;28;20052;-75
2022/03/09 02:39:27;;;;;;;7.47;3.57;;;;;;;-3.39;32.99;99962.38;5019568;28;20131;-72
2022/03/09 02:41:53;;;;;;;10.40;4.03;;;;;;;-3.51;33.05;99963.75;5052363;28;20048;-75
2022/03/09 02:44:19;;;;;;;7.33;3.47;;;;;;;-3.57;33.32;99970.00;5020778;28;20047;-74
2022/03/09 02:46:45;;;;;;;7.10;3.60;;;;;;;-3.71;33.20;99967.16;5020640;28;20071;-74
2022/03/09 02:49:10;;;;;;;5.00;3.50;;;;;;;-3.84;33.32;99976.31;5020813;28;20813;-73
2022/03/09 02:51:36;;;;;;;11.03;3.87;;;;;;;-3.89;33.24;99973.06;5020279;28;20047;-73
2022/03/09 02:54:02;;;;;;;9.73;4.00;;;;;;;-3.95;33.59;99981.06;5020083;28;20056;-74
2022/03/09 02:56:28;;;;;;;6.27;3.70;;;;;;;-4.09;33.56;99966.97;5020090;28;20060;-74
2022/03/09 02:58:56;;;;;;;9.20;3.93;;;;;;;-4.24;33.72;99959.75;5053234;28;20302;-74
2022/03/09 03:01:22;;;;;;;11.20;4.10;;;;;;;-4.34;33.90;99974.00;5020296;28;20290;-73
2022/03/09 03:03:48;;;;;;;7.60;3.53;;;;;;;-4.40;34.14;99971.63;5040937;28;20048;-73
2022/03/09 03:06:14;;;;;;;5.00;3.40;;;;;;;-4.56;34.05;99970.50;5041785;28;20723;-73
2022/03/09 03:08:40;;;;;;;10.10;3.50;;;;;;;-4.61;34.57;99975.03;5023840;28;20314;-73
2022/03/09 03:11:10;;;;;;;7.37;3.40;;;;;;;-4.53;34.51;99976.41;5023735;28;20052;-74
2022/03/09 03:13:39;;;;;;;3.88;3.17;;;;;;;-4.54;34.46;99979.06;5073661;28;20456;-73
2022/03/09 03:16:09;;;;;;;5.43;2.93;;;;;;;-4.57;34.40;99974.84;5024055;28;20052;-74
2022/03/09 03:18:35;;;;;;;9.60;3.97;;;;;;;-4.85;34.40;99971.56;5023534;28;20312;-74
2022/03/09 03:21:02;;;;;;;5.33;2.80;;;;;;;-4.83;34.58;99982.72;5057053;28;20294;-74
2022/03/09 03:23:30;;;;;;;9.33;3.70;;;;;;;-4.79;34.77;99980.84;5023847;28;20295;-74
2022/03/09 03:25:56;;;;;;;7.47;3.33;;;;;;;-4.93;34.71;99981.34;5024047;28;20382;-74
2022/03/09 03:28:22;;;;;;;7.37;3.40;;;;;;;-4.95;35.03;99982.31;5040150;28;20799;-74
2022/03/09 03:30:49;;;;;;;5.87;3.33;;;;;;;-5.13;35.03;99988.13;5056150;28;20381;-73
2022/03/09 03:33:16;;;;;;;6.70;3.33;;;;;;;-5.08;35.06;99983.59;5021852;28;20373;-75
2022/03/09 03:35:42;;;;;;;4.17;3.10;;;;;;;-5.13;34.92;100001.88;5037420;28;20661;-74
2022/03/09 03:38:09;;;;;;;5.83;3.33;;;;;;;-5.17;35.18;99997.72;5021096;28;20395;-74
2022/03/09 03:40:35;;;;;;;8.87;3.37;;;;;;;-5.29;34.92;100000.72;5055488;28;20291;-76
2022/03/09 03:43:02;;;;;;;8.30;3.33;;;;;;;-5.27;35.02;99998.91;5021968;28;20310;-76
2022/03/09 03:45:28;;;;;;;14.70;3.33;;;;;;;-5.31;35.02;100012.88;5039296;28;20496;-76
2022/03/09 03:47:54;;;;;;;7.33;3.50;;;;;;;-5.36;34.95;100009.59;5021760;28;20345;-74
2022/03/09 03:50:20;;;;;;;7.13;3.43;;;;;;;-5.39;35.10;100007.09;5023064;28;20105;-74
2022/03/09 03:52:46;;;;;;;6.83;3.43;;;;;;;-5.40;35.10;100014.00;5039435;28;20136;-74
2022/03/09 03:55:14;;;;;;;6.27;3.30;;;;;;;-5.48;35.35;99997.91;5022907;28;20354;-74
2022/03/09 03:57:40;;;;;;;13.13;3.40;;;;;;;-5.36;35.30;100010.44;5039735;28;20106;-73
2022/03/09 04:00:08;;;;;;;7.27;3.40;;;;;;;-5.30;35.39;100001.59;5022538;28;20298;-78
2022/03/09 04:02:34;;;;;;;5.63;2.87;;;;;;;-5.38;35.30;100016.53;5039746;28;20283;-74
2022/03/09 04:05:00;;;;;;;8.20;3.80;;;;;;;-5.41;35.16;100014.06;5023024;28;20283;-74
2022/03/09 04:07:26;;;;;;;7.30;4.33;;;;;;;-5.36;35.37;100017.34;5039628;28;20052;-73
2022/03/09 04:09:52;;;;;;;7.37;3.83;;;;;;;-5.33;35.18;100028.44;5022805;28;20052;-75
2022/03/09 04:12:19;;;;;;;8.83;3.90;;;;;;;-5.34;35.22;100018.16;5072300;28;20294;-75
2022/03/09 04:14:45;;;;;;;8.87;3.90;;;;;;;-5.26;35.14;100021.34;5022856;28;20291;-74
2022/03/09 04:17:11;;;;;;;6.17;3.80;;;;;;;-5.28;35.32;100023.13;5022288;28;20349;-74
2022/03/09 04:19:37;;;;;;;8.70;4.27;;;;;;;-5.27;35.10;100023.06;5022563;28;20040;-73
2022/03/09 04:22:03;;;;;;;10.33;4.53;;;;;;;-5.20;35.04;100019.38;5023261;28;20053;-74
2022/03/09 04:24:29;;;;;;;10.57;4.63;;;;;;;-5.20;35.01;100026.31;5022593;28;20138;-76
2022/03/09 04:26:55;;;;;;;16.20;5.07;;;;;;;-5.17;35.37;100031.38;5022360;28;20885;-74
2022/03/09 04:29:21;;;;;;;9.70;4.47;;;;;;;-5.11;35.12;100035.50;5038666;28;20512;-74
2022/03/09 04:31:47;;;;;;;8.10;4.47;;;;;;;-5.17;35.28;100032.19;5021626;28;20083;-74
2022/03/09 04:34:12;;;;;;;10.47;4.63;;;;;;;-5.20;35.33;100039.25;5021602;28;20097;-66
2022/03/09 04:36:38;;;;;;;10.47;4.70;;;;;;;-5.15;35.18;100039.91;5071190;28;20075;-65
2022/03/09 04:39:05;;;;;;;9.57;4.63;;;;;;;-5.12;35.18;100047.63;5055076;28;20413;-67
2022/03/09 04:41:31;;;;;;;6.90;3.50;;;;;;;-5.14;35.01;100051.13;5072443;28;20295;-67
2022/03/09 04:43:57;;;;;;;7.13;3.90;;;;;;;-5.34;35.12;100025.91;5038452;28;20789;-67
2022/03/09 04:46:23;;;;;;;8.83;4.60;;;;;;;-5.18;35.22;100054.72;5054563;28;20040;-66
2022/03/09 04:48:49;;;;;;;7.77;4.60;;;;;;;-5.29;35.11;100034.38;5066350;28;20040;-65
2022/03/09 04:51:16;;;;;;;8.50;5.17;;;;;;;-4.98;35.41;100058.31;5020061;28;20416;-65
2022/03/09 04:53:43;;;;;;;12.83;5.27;;;;;;;-5.04;35.45;100068.06;5051866;28;20504;-67
2022/03/09 04:56:09;;;;;;;17.30;5.20;;;;;;;-5.11;35.33;100056.22;5053784;28;20329;-66
2022/03/09 04:58:36;;;;;;;9.60;4.90;;;;;;;-4.97;35.34;100079.91;5037405;28;20697;-67
2022/03/09 05:01:01;;;;;;;16.47;5.20;;;;;;;-4.94;35.64;100084.97;5068998;28;20291;-66
2022/03/09 05:03:27;;;;;;;15.73;5.53;;;;;;;-4.92;35.43;100073.66;5021316;28;20101;-65
2022/03/09 05:05:53;;;;;;;13.60;5.07;;;;;;;-4.79;35.18;100082.72;5053495;28;20398;-66
2022/03/09 05:08:19;;;;;;;11.57;4.97;;;;;;;-4.73;35.10;100092.88;5035620;28;20397;-65
2022/03/09 05:10:45;;;;;;;8.80;4.70;;;;;;;-4.70;35.28;100090.19;5050531;28;20049;-65
2022/03/09 05:13:11;;;;;;;13.03;5.37;;;;;;;-4.58;35.37;100097.53;5033184;28;20060;-66
2022/03/09 05:15:36;;;;;;;9.20;5.10;;;;;;;-4.49;35.01;100099.78;5066695;28;20397;-66
2022/03/09 05:18:03;;;;;;;8.93;5.03;;;;;;;-4.33;34.69;100107.88;5034340;28;20117;-65
2022/03/09 05:20:29;;;;;;;12.70;5.37;;;;;;;-4.45;34.21;100069.44;5034008;28;20286;-65
2022/03/09 05:22:56;;;;;;;10.10;5.10;;;;;;;-4.18;34.08;100099.56;5017459;28;20285;-65
2022/03/09 05:25:22;;;;;;;14.60;5.30;;;;;;;-4.02;34.09;100106.72;5049871;28;20690;-66
2022/03/09 05:27:48;;;;;;;12.27;5.70;;;;;;;-3.90;33.90;100101.09;5052447;28;20160;-65
2022/03/09 05:30:16;;;;;;;17.27;5.77;;;;;;;-3.80;33.67;100110.19;5035802;28;20423;-65
2022/03/09 05:32:42;;;;;;;9.87;4.77;;;;;;;-3.69;33.38;100105.47;5052636;28;20405;-66
2022/03/09 05:35:11;;;;;;;13.23;5.50;;;;;;;-3.68;33.28;100104.56;5052107;28;20282;-65
2022/03/09 05:37:42;;;;;;;8.97;4.63;;;;;;;-3.38;32.72;100119.88;5051858;28;20306;-65
2022/03/09 05:40:09;;;;;;;18.53;5.30;;;;;;;-3.49;32.96;100117.69;5036085;28;20348;-66
2022/03/09 05:42:36;;;;;;;10.63;4.97;;;;;;;-3.33;32.66;100123.97;5018921;28;20294;-66
2022/03/09 05:45:02;;;;;;;12.83;5.40;;;;;;;-3.31;32.51;100126.50;5068956;28;20072;-66
2022/03/09 05:47:28;;;;;;;11.00;5.40;;;;;;;-3.29;32.20;100129.91;5068428;28;20298;-68
2022/03/09 05:49:54;;;;;;;18.33;5.33;;;;;;;-3.23;32.05;100117.53;5035213;28;20147;-66
2022/03/09 05:52:23;;;;;;;7.00;4.50;;;;;;;-3.15;31.79;100127.59;5019654;28;20040;-65
2022/03/09 05:54:49;;;;;;;9.03;5.30;;;;;;;-3.03;31.81;100116.72;5052208;28;20421;-67
2022/03/09 05:57:22;;;;;;;11.07;5.10;;;;;;;-2.63;31.30;100132.38;5035374;28;20078;-66
2022/03/09 05:59:48;;;;;;;14.40;6.00;;;;;;;-2.68;30.93;100137.75;5051853;28;20044;-66
2022/03/09 06:02:14;;;;;;;8.80;5.03;;;;;;;-2.62;30.71;100108.03;5018551;28;20139;-66
2022/03/09 06:04:42;;;;;;;11.83;5.13;;;;;;;-2.31;30.36;100137.91;5019298;28;20044;-66
2022/03/09 06:07:08;;;;;;;13.97;5.80;;;;;;;-2.17;30.28;100134.69;5051616;28;20047;-66
2022/03/09 06:09:35;;;;;;;14.90;5.83;;;;;;;-1.97;29.85;100150.28;5019134;28;20048;-66
2022/03/09 06:12:01;;;;;;;15.03;5.50;;;;;;;-1.95;29.48;100148.44;5034330;28;20063;-67
2022/03/09 06:14:27;;;;;;;18.57;6.17;;;;;;;-1.80;29.11;100142.56;5069861;28;20415;-66
2022/03/09 06:16:56;;;;;;;11.97;5.50;;;;;;;-1.45;29.14;100153.97;5038060;28;20032;-67
2022/03/09 06:19:21;;;;;;;14.83;5.83;;;;;;;-1.45;28.45;100146.16;5068594;28;20104;-65
2022/03/09 06:21:50;;;;;;;12.63;5.67;;;;;;;-1.30;28.53;100150.66;5068547;28;20060;-65
2022/03/09 06:24:18;;;;;;;8.30;5.17;;;;;;;-1.08;28.25;100153.94;5051550;28;20107;-65
2022/03/09 06:26:44;;;;;;;13.00;6.03;;;;;;;-0.83;27.75;100149.25;5067741;28;20130;-66
2022/03/09 06:29:11;;;;;;;13.77;5.40;;;;;;;-0.79;27.51;100154.25;5063442;28;20123;-66
2022/03/09 06:31:37;;;;;;;14.10;6.17;;;;;;;-0.74;27.06;100154.84;5071240;28;20044;-65
2022/03/09 06:34:02;;;;;;;14.43;5.87;;;;;;;-0.80;27.06;100133.44;5070936;28;20788;-66
2022/03/09 06:36:28;;;;;;;10.40;5.10;;;;;;;-0.52;27.16;100158.09;5087264;28;20036;-70
2022/03/09 06:38:54;;;;;;;15.53;6.10;;;;;;;-0.33;27.12;100145.81;5071947;28;20062;-66
2022/03/09 06:41:20;;;;;;;11.03;5.27;;;;;;;0.02;26.36;100161.44;5038214;28;20136;-64
2022/03/09 06:43:46;;;;;;;13.03;5.40;;;;;;;0.15;26.30;100147.66;5029014;28;20075;-65
2022/03/09 06:46:12;;;;;;;22.47;6.00;;;;;;;0.24;26.39;100136.72;5057192;28;20036;-64
2022/03/09 06:48:40;;;;;;;15.40;5.70;;;;;;;0.55;25.78;100156.81;5058601;28;20151;-64
2022/03/09 06:51:06;;;;;;;23.07;5.70;;;;;;;0.60;25.87;100141.75;5044030;28;20123;-64
2022/03/09 06:53:31;;;;;;;10.67;5.33;;;;;;;0.65;25.34;100137.94;5042979;28;20033;-65
2022/03/09 06:55:57;;;;;;;15.23;6.27;;;;;;;0.86;25.42;100156.84;5067568;28;20051;-67
2022/03/09 06:58:23;;;;;;;11.87;5.57;;;;;;;0.94;25.44;100155.47;5070548;28;20505;-65
2022/03/09 07:00:50;;;;;;;13.13;5.73;;;;;;;1.01;25.31;100159.44;5063446;28;20059;-66
2022/03/09 07:03:16;;;;;;;15.87;5.90;;;;;;;1.19;25.29;100160.16;5052912;28;20040;-64
2022/03/09 07:05:41;;;;;;;16.20;6.60;;;;;;;1.38;24.54;100164.25;5009981;28;20032;-65
2022/03/09 07:08:07;;;;;;;12.67;5.60;;;;;;;1.25;24.36;100097.03;5075418;28;20048;-64
2022/03/09 07:10:33;;;;;;;10.27;5.17;;;;;;;2.00;23.84;100165.81;5040863;28;20047;-65
2022/03/09 07:12:59;;;;;;;15.20;5.50;;;;;;;2.19;23.35;100166.41;5076067;28;20052;-66
2022/03/09 07:15:24;;;;;;;11.90;4.73;;;;;;;2.49;23.10;100167.16;5059574;28;20048;-65
2022/03/09 07:17:50;;;;;;;15.77;5.70;;;;;;;2.81;22.71;100159.91;5075406;28;20097;-66
2022/03/09 07:20:18;;;;;;;11.30;5.37;;;;;;;3.20;22.05;100163.47;5042815;28;20504;-65
2022/03/09 07:22:44;;;;;;;14.47;5.33;;;;;;;3.35;21.46;100153.75;5074948;28;20447;-65
2022/03/09 07:25:11;;;;;;;7.03;4.57;;;;;;;3.48;21.57;100158.09;5076336;28;20044;-65
2022/03/09 07:27:38;;;;;;;13.87;5.63;;;;;;;3.21;21.17;100090.81;5072055;28;20086;-65
2022/03/09 07:30:05;;;;;;;12.67;5.73;;;;;;;3.82;20.61;100140.09;5058820;28;20036;-65
2022/03/09 07:32:31;;;;;;;16.20;5.43;;;;;;;4.59;20.10;100175.00;5077005;28;20040;-65
2022/03/09 07:34:57;;;;;;;15.13;6.03;;;;;;;6.26;18.50;100173.91;5058109;28;20037;-65
2022/03/09 07:37:23;;;;;;;9.80;5.33;;;;;;;7.27;17.41;100159.69;5067160;28;20032;-66
2022/03/09 07:39:49;;;;;;;14.13;5.80;;;;;;;8.43;16.58;100163.91;5059495;28;20052;-66
2022/03/09 07:42:15;;;;;;;9.97;5.30;;;;;;;9.68;15.74;100166.78;5074878;28;20520;-66
2022/03/09 07:44:41;;;;;;;13.18;5.90;;;;;;;10.40;14.82;100168.94;5043175;28;20403;-66
2022/03/09 07:47:07;;;;;;;14.07;6.28;;;;;;;11.63;13.80;100172.81;5042933;28;20041;-67
2022/03/09 07:49:33;;;;;;;17.38;5.18;;;;;;;13.01;12.63;100166.47;5060416;28;20048;-67
2022/03/09 07:52:00;;;;;;;17.00;5.80;;;;;;;14.20;12.01;100174.84;5038539;28;20054;-67
2022/03/09 07:54:27;;;;;;;13.48;5.63;;;;;;;15.38;11.14;100169.53;5063739;28;20503;-66
2022/03/09 07:56:53;;;;;;;11.98;5.55;;;;;;;16.58;10.66;100169.44;5078727;28;20040;-67
2022/03/09 07:59:19;;;;;;;13.45;5.35;;;;;;;17.26;9.73;100171.00;5050751;28;20072;-67
2022/03/09 08:01:45;;;;;;;8.38;4.53;;;;;;;18.89;8.86;100162.63;5020606;28;20543;-68
2022/03/09 08:04:11;;;;;;;11.07;4.80;;;;;;;20.22;7.98;100166.41;5072469;28;20424;-68
2022/03/09 08:06:40;;;;;;;13.90;4.78;;;;;;;21.63;6.78;100166.25;5063384;28;20058;-67
2022/03/09 08:09:06;;;;;;;10.18;4.68;;;;;;;21.87;6.68;100172.81;5055777;28;20047;-68
2022/03/09 08:11:32;;;;;;;8.88;4.88;;;;;;;21.13;6.91;100169.81;5037280;28;20603;-68
2022/03/09 08:13:58;;;;;;;7.80;4.60;;;;;;;19.87;7.37;100171.09;5053766;28;20052;-70
2022/03/09 08:16:24;;;;;;;12.82;5.63;;;;;;;18.53;7.76;100164.66;5038306;28;20055;-68
2022/03/09 08:18:50;;;;;;;10.27;5.00;;;;;;;17.39;7.54;100147.00;5060583;28;20036;-67
2022/03/09 08:21:24;;;;;;;11.13;5.10;;;;;;;17.90;7.94;100168.22;5058412;28;20060;-67
2022/03/09 08:23:50;;;;;;;9.85;5.00;;;;;;;18.58;7.35;100174.81;5044674;28;20492;-67
2022/03/09 08:26:16;;;;;;;14.75;5.30;;;;;;;19.60;6.27;100167.50;5079592;28;20081;-68
2022/03/09 08:28:42;;;;;;;11.43;4.80;;;;;;;20.72;6.38;100173.84;5070597;28;20040;-68
2022/03/09 08:31:08;;;;;;;11.35;4.60;;;;;;;21.05;6.03;100172.75;5045798;28;20041;-68
2022/03/09 08:33:34;;;;;;;13.68;5.10;;;;;;;22.18;5.68;100178.22;5043836;28;20516;-69
2022/03/09 08:36:00;;;;;;;10.63;4.45;;;;;;;23.01;5.17;100172.28;5062084;28;20075;-68
2022/03/09 08:38:25;;;;;;;9.85;4.65;;;;;;;23.62;4.75;100165.94;5045267;28;20047;-68
2022/03/09 08:40:54;;;;;;;7.53;4.38;;;;;;;23.98;4.34;100158.53;5052498;28;20070;-68
2022/03/09 08:43:20;;;;;;;12.15;5.03;;;;;;;23.46;4.53;100172.81;5039002;28;20411;-68
2022/03/09 08:45:46;;;;;;;11.50;4.95;;;;;;;22.94;4.74;100173.41;5026605;28;20037;-68
2022/03/09 08:48:12;;;;;;;11.55;5.40;;;;;;;22.98;4.79;100180.00;5086573;28;20468;-68
2022/03/09 08:50:38;;;;;;;7.45;4.97;;;;;;;23.64;4.68;100166.50;5090642;28;20059;-68
2022/03/09 08:53:04;;;;;;;11.65;4.55;;;;;;;24.23;3.78;100172.72;5055623;28;20036;-68
2022/03/09 08:55:30;;;;;;;7.43;4.72;;;;;;;24.91;3.75;100173.03;5072670;28;20050;-68
2022/03/09 08:57:56;;;;;;;11.43;4.82;;;;;;;25.31;3.30;100159.50;5050582;28;20049;-67
2022/03/09 09:00:24;;;;;;;13.68;4.30;;;;;;;26.05;3.60;100183.84;5014998;28;20074;-68
2022/03/09 09:02:50;;;;;;;8.25;4.72;;;;;;;26.38;3.13;100173.84;5032394;28;20064;-67
2022/03/09 09:05:15;;;;;;;15.00;6.05;;;;;;;26.67;3.20;100165.59;5032565;28;20136;-68
2022/03/09 09:07:42;;;;;;;7.72;4.55;;;;;;;27.01;3.10;100170.75;5000143;28;20132;-68
2022/03/09 09:10:10;;;;;;;13.95;4.35;;;;;;;26.85;2.79;100190.66;5032133;28;20178;-68
2022/03/09 09:12:36;;;;;;;10.00;4.63;;;;;;;27.08;2.87;100181.44;5015159;28;20056;-68
2022/03/09 09:15:03;;;;;;;8.38;4.60;;;;;;;27.31;3.02;100178.50;5048807;28;20056;-68
2022/03/09 09:17:29;;;;;;;12.95;4.88;;;;;;;27.55;2.73;100177.19;5048617;28;20441;-69
2022/03/09 09:19:55;;;;;;;7.35;4.97;;;;;;;28.04;2.60;100184.31;5032211;28;20052;-69
2022/03/09 09:22:20;;;;;;;6.68;4.75;;;;;;;28.28;2.32;100188.34;5015839;28;20937;-68
2022/03/09 09:24:46;;;;;;;12.65;4.68;;;;;;;28.22;2.36;100183.91;5048080;28;20508;-68
2022/03/09 09:27:12;;;;;;;8.27;4.68;;;;;;;28.53;2.28;100179.56;5031751;28;20041;-71
2022/03/09 09:29:38;;;;;;;9.57;5.82;;;;;;;28.49;2.21;100190.22;5035133;28;20048;-70
2022/03/09 09:32:04;;;;;;;6.15;4.57;;;;;;;28.68;2.11;100188.72;5048418;28;20044;-70
2022/03/09 09:34:30;;;;;;;7.85;4.85;;;;;;;28.57;2.05;100186.97;5031427;28;20053;-71
2022/03/09 09:36:56;;;;;;;10.75;5.45;;;;;;;28.32;2.07;100178.56;5031843;28;20366;-70
2022/03/09 09:39:22;;;;;;;10.57;5.45;;;;;;;28.21;2.06;100186.91;5048236;28;20052;-70
2022/03/09 09:41:54;;;;;;;8.95;5.03;;;;;;;27.80;2.17;100185.66;5064651;28;20087;-69
2022/03/09 09:44:22;;;;;;;11.55;4.70;;;;;;;27.45;2.26;100191.53;5047570;28;20044;-70
2022/03/09 09:46:47;;;;;;;7.00;4.30;;;;;;;26.99;2.17;100188.41;5046663;28;20524;-69
2022/03/09 09:49:14;;;;;;;7.50;4.60;;;;;;;27.10;2.09;100188.31;5014896;28;20044;-70
2022/03/09 09:51:44;;;;;;;8.95;4.38;;;;;;;27.05;2.04;100192.84;5015137;28;20040;-69
2022/03/09 09:54:13;;;;;;;10.32;4.53;;;;;;;26.82;2.24;100133.94;5031533;28;20110;-70
2022/03/09 09:56:40;;;;;;;8.88;4.72;;;;;;;27.46;2.24;100173.25;5047392;28;20045;-70
2022/03/09 09:59:07;;;;;;;7.22;4.55;;;;;;;28.05;1.97;100185.94;5048205;28;20095;-69
2022/03/09 10:01:33;;;;;;;7.57;4.70;;;;;;;27.89;1.94;100190.41;5042029;28;20044;-69
2022/03/09 10:03:59;;;;;;;7.47;4.75;;;;;;;27.90;1.96;100200.28;5031112;28;20107;-70
2022/03/09 10:06:25;;;;;;;10.55;4.35;;;;;;;28.29;1.88;100194.66;5014646;28;20076;-70
2022/03/09 10:09:02;;;;;;;7.97;4.05;;;;;;;28.42;1.47;100192.28;5031091;28;20044;-70
2022/03/09 10:11:52;;;;;;;6.65;4.60;;;;;;;28.48;1.55;100180.34;5014131;28;20146;-70
2022/03/09 10:14:43;;;;;;;9.38;4.50;;;;;;;29.01;1.57;100193.88;5031159;28;20534;-70
2022/03/09 10:17:20;;;;;;;6.85;3.90;;;;;;;28.96;1.42;100190.25;5063849;28;20049;-70
2022/03/09 10:19:50;;;;;;;10.82;4.45;;;;;;;28.56;1.55;100193.53;5047894;28;20041;-70
2022/03/09 10:22:45;;;;;;;6.78;4.13;;;;;;;27.92;1.51;100198.09;5047370;28;20080;-70
2022/03/09 10:25:13;;;;;;;7.93;4.50;;;;;;;27.23;1.78;100200.75;5047872;28;20087;-70
2022/03/09 10:27:49;;;;;;;14.60;4.43;;;;;;;26.57;2.07;100177.13;5047324;28;20048;-71
2022/03/09 10:30:19;;;;;;;7.78;4.40;;;;;;;26.90;2.01;100206.28;5049996;28;20508;-72
2022/03/09 10:32:53;;;;;;;12.23;4.50;;;;;;;27.33;2.00;100196.28;5551150;22;21114;-75
2022/03/09 10:35:38;;;;;;;9.30;3.70;;;;;;;27.80;1.66;100210.25;5016162;28;20063;-73
2022/03/09 10:38:20;;;;;;;7.88;4.70;;;;;;;27.91;1.73;100217.47;5011156;28;20049;-74
2022/03/09 10:40:48;;;;;;;6.95;4.70;;;;;;;27.92;1.78;100217.22;5011539;28;20041;-76
2022/03/09 10:43:23;;;;;;;6.50;4.22;;;;;;;28.38;1.54;100213.03;5011522;28;20131;-74
2022/03/09 10:45:55;;;;;;;5.15;3.95;;;;;;;27.95;1.71;100205.78;4994988;28;20045;-73
2022/03/09 10:48:21;;;;;;;7.75;3.85;;;;;;;26.77;1.98;100203.91;4994703;28;20065;-73
2022/03/09 10:50:53;;;;;;;3.97;3.53;;;;;;;26.08;1.96;100216.88;4978593;28;20088;-75
2022/03/09 10:53:19;;;;;;;5.20;3.42;;;;;;;25.83;2.03;100210.91;4995339;28;20060;-73
2022/03/09 10:55:45;;;;;;;4.97;3.60;;;;;;;25.24;2.32;100213.19;4995262;28;20415;-73
2022/03/09 10:58:21;;;;;;;7.70;3.67;;;;;;;25.00;2.53;100206.13;4994904;28;20381;-73
2022/03/09 11:00:51;;;;;;;6.97;3.80;;;;;;;24.70;2.49;100206.25;4995178;28;20095;-74
2022/03/09 11:03:29;;;;;;;7.10;4.60;;;;;;;24.56;2.46;100205.63;5011294;28;20049;-74
2022/03/09 11:06:02;;;;;;;6.70;3.92;;;;;;;24.18;2.75;100212.50;5012392;28;20057;-72
2022/03/09 11:08:34;;;;;;;7.57;4.72;;;;;;;23.85;2.74;100218.38;5028823;28;20083;-73
2022/03/09 11:11:00;;;;;;;7.03;4.65;;;;;;;23.95;2.95;100218.66;5011386;28;20128;-76
2022/03/09 11:13:28;;;;;;;8.65;4.70;;;;;;;24.19;3.14;100225.00;5011022;28;20056;-75
2022/03/09 11:15:54;;;;;;;9.02;5.03;;;;;;;24.23;3.05;100220.78;5011396;28;20045;-75
2022/03/09 11:18:21;;;;;;;7.55;4.55;;;;;;;24.11;2.88;100215.31;4994007;28;20127;-74
2022/03/09 11:20:49;;;;;;;8.55;4.53;;;;;;;23.71;3.13;100218.81;4995848;28;20488;-74
2022/03/09 11:23:15;;;;;;;6.28;4.10;;;;;;;23.88;3.03;100230.69;4992623;28;20046;-74
2022/03/09 11:25:47;;;;;;;9.95;4.25;;;;;;;24.01;3.06;100228.63;4962098;28;20564;-74
2022/03/09 11:28:21;;;;;;;6.85;4.07;;;;;;;24.09;3.00;100224.75;4990432;28;20037;-73